createdAt,value
2017-05-25T00:00:31.813Z,0
2017-05-25T00:01:12.402Z,0
2017-05-25T00:01:52.982Z,0
2017-05-25T00:02:33.579Z,0
2017-05-25T00:03:15.103Z,0
2017-05-25T00:03:55.703Z,0
2017-05-25T00:04:36.287Z,0
2017-05-25T00:05:16.885Z,0
2017-05-25T00:05:57.470Z,0
2017-05-25T00:06:38.036Z,0
2017-05-25T00:07:18.620Z,0
2017-05-25T00:07:59.219Z,0
2017-05-25T00:08:39.832Z,0
2017-05-25T00:09:20.420Z,0
2017-05-25T00:10:01.014Z,0
2017-05-25T00:10:41.598Z,0
2017-05-25T00:11:22.190Z,0
2017-05-25T00:12:02.770Z,0
2017-05-25T00:12:43.350Z,0
2017-05-25T00:13:23.925Z,0
2017-05-25T00:14:04.510Z,0
2017-05-25T00:14:45.088Z,0
2017-05-25T00:15:25.677Z,0
2017-05-25T00:16:06.268Z,0
2017-05-25T00:16:46.841Z,0
2017-05-25T00:17:27.423Z,0
2017-05-25T00:18:07.999Z,0
2017-05-25T00:18:48.574Z,0
2017-05-25T00:19:29.136Z,0
2017-05-25T00:20:09.750Z,0
2017-05-25T00:20:50.320Z,0
2017-05-25T00:21:30.893Z,0
2017-05-25T00:22:11.467Z,0
2017-05-25T00:22:52.049Z,0
2017-05-25T00:23:32.627Z,0
2017-05-25T00:24:13.234Z,0
2017-05-25T00:24:53.805Z,0
2017-05-25T00:25:34.383Z,0
2017-05-25T00:26:15.005Z,0
2017-05-25T00:26:55.584Z,0
2017-05-25T00:27:36.170Z,0
2017-05-25T00:28:16.769Z,0
2017-05-25T00:28:57.333Z,0
2017-05-25T00:29:37.900Z,0
2017-05-25T00:30:18.480Z,0
2017-05-25T00:30:59.070Z,0
2017-05-25T00:31:39.681Z,0
2017-05-25T00:32:20.273Z,0
2017-05-25T00:33:00.872Z,0
2017-05-25T00:33:41.484Z,0
2017-05-25T00:34:22.071Z,0
2017-05-25T00:35:02.646Z,0
2017-05-25T00:35:43.230Z,0
2017-05-25T00:36:23.802Z,0
2017-05-25T00:37:04.387Z,0
2017-05-25T00:37:44.971Z,0
2017-05-25T00:38:25.561Z,0
2017-05-25T00:39:06.565Z,0
2017-05-25T00:39:47.155Z,0
2017-05-25T00:40:27.764Z,0
2017-05-25T00:41:08.350Z,0
2017-05-25T00:41:48.972Z,0
2017-05-25T00:42:29.600Z,0
2017-05-25T00:43:10.120Z,0
2017-05-25T00:43:50.695Z,0
2017-05-25T00:44:31.282Z,0
2017-05-25T00:45:11.860Z,0
2017-05-25T00:45:52.434Z,0
2017-05-25T00:46:33.016Z,0
2017-05-25T00:47:13.608Z,0
2017-05-25T00:47:54.180Z,0
2017-05-25T00:48:34.762Z,0
2017-05-25T00:49:15.347Z,0
2017-05-25T00:49:55.948Z,0
2017-05-25T00:50:36.584Z,0
2017-05-25T00:51:17.109Z,0
2017-05-25T00:51:57.701Z,0
2017-05-25T00:52:38.291Z,0
2017-05-25T00:53:18.902Z,0
2017-05-25T00:53:59.491Z,0
2017-05-25T00:54:40.075Z,0
2017-05-25T00:55:20.646Z,0
2017-05-25T00:56:01.231Z,0
2017-05-25T00:56:41.808Z,0
2017-05-25T00:57:22.397Z,0
2017-05-25T00:58:02.970Z,0
2017-05-25T00:58:43.551Z,0
2017-05-25T00:59:24.143Z,0
2017-05-25T01:00:04.726Z,0
2017-05-25T01:00:45.307Z,0
2017-05-25T01:01:25.892Z,0
2017-05-25T01:02:06.486Z,0
2017-05-25T01:02:47.093Z,0
2017-05-25T01:03:27.661Z,0
2017-05-25T01:04:08.235Z,0
2017-05-25T01:04:48.814Z,0
2017-05-25T01:05:29.402Z,0
2017-05-25T01:06:09.984Z,0
2017-05-25T01:06:50.576Z,0
2017-05-25T01:07:31.152Z,0
2017-05-25T01:08:11.730Z,0
2017-05-25T01:08:52.322Z,0
2017-05-25T01:09:32.895Z,0
2017-05-25T01:10:13.472Z,0
2017-05-25T01:10:54.055Z,0
2017-05-25T01:11:34.639Z,0
2017-05-25T01:12:15.217Z,0
2017-05-25T01:12:55.797Z,0
2017-05-25T01:13:36.379Z,0
2017-05-25T01:14:16.965Z,0
2017-05-25T01:14:57.549Z,0
2017-05-25T01:15:38.148Z,0
2017-05-25T01:16:18.732Z,0
2017-05-25T01:16:59.307Z,0
2017-05-25T01:17:39.883Z,0
2017-05-25T01:18:20.475Z,0
2017-05-25T01:19:01.075Z,0
2017-05-25T01:19:41.667Z,0
2017-05-25T01:20:22.254Z,0
2017-05-25T01:21:02.834Z,0
2017-05-25T01:21:43.408Z,0
2017-05-25T01:22:24.005Z,0
2017-05-25T01:23:04.624Z,0
2017-05-25T01:23:45.203Z,0
2017-05-25T01:24:25.786Z,0
2017-05-25T01:25:06.392Z,0
2017-05-25T01:25:46.988Z,0
2017-05-25T01:26:27.562Z,0
2017-05-25T01:27:08.154Z,0
2017-05-25T01:27:48.715Z,0
2017-05-25T01:28:29.348Z,0
2017-05-25T01:29:09.929Z,0
2017-05-25T01:29:50.525Z,0
2017-05-25T01:30:31.104Z,0
2017-05-25T01:31:11.689Z,0
2017-05-25T01:31:52.272Z,0
2017-05-25T01:32:32.845Z,0
2017-05-25T01:33:13.423Z,0
2017-05-25T01:33:54.006Z,0
2017-05-25T01:34:34.600Z,0
2017-05-25T01:35:15.173Z,0
2017-05-25T01:35:55.772Z,0
2017-05-25T01:36:36.360Z,0
2017-05-25T01:37:16.931Z,0
2017-05-25T01:37:57.516Z,0
2017-05-25T01:38:38.095Z,0
2017-05-25T01:39:18.671Z,0
2017-05-25T01:39:59.261Z,0
2017-05-25T01:40:39.856Z,0
2017-05-25T01:41:20.436Z,0
2017-05-25T01:42:01.019Z,0
2017-05-25T01:42:41.595Z,0
2017-05-25T01:43:22.177Z,0
2017-05-25T01:44:02.763Z,0
2017-05-25T01:44:43.334Z,0
2017-05-25T01:45:23.928Z,0
2017-05-25T01:46:04.502Z,0
2017-05-25T01:46:45.076Z,0
2017-05-25T01:47:25.662Z,0
2017-05-25T01:48:06.247Z,0
2017-05-25T01:48:46.843Z,0
2017-05-25T01:49:27.425Z,0
2017-05-25T01:50:08.015Z,0
2017-05-25T01:50:48.600Z,0
2017-05-25T01:51:29.171Z,0
2017-05-25T01:52:09.751Z,0
2017-05-25T01:52:50.358Z,0
2017-05-25T01:53:30.930Z,0
2017-05-25T01:54:11.526Z,0
2017-05-25T01:54:52.113Z,0
2017-05-25T01:55:32.708Z,0
2017-05-25T01:56:13.286Z,0
2017-05-25T01:56:53.879Z,0
2017-05-25T01:57:34.465Z,0
2017-05-25T01:58:15.050Z,0
2017-05-25T01:58:55.630Z,0
2017-05-25T01:59:36.213Z,0
2017-05-25T02:00:16.794Z,0
2017-05-25T02:00:57.385Z,0
2017-05-25T02:01:38.038Z,0
2017-05-25T02:02:18.848Z,0
2017-05-25T02:02:59.455Z,0
2017-05-25T02:03:40.039Z,0
2017-05-25T02:04:20.623Z,0
2017-05-25T02:05:01.206Z,0
2017-05-25T02:05:41.797Z,0
2017-05-25T02:06:22.864Z,0
2017-05-25T02:07:03.442Z,0
2017-05-25T02:07:44.017Z,0
2017-05-25T02:08:24.618Z,0
2017-05-25T02:09:05.218Z,0
2017-05-25T02:09:45.783Z,0
2017-05-25T02:10:26.363Z,0
2017-05-25T02:11:06.961Z,0
2017-05-25T02:11:47.565Z,0
2017-05-25T02:12:28.139Z,0
2017-05-25T02:13:08.736Z,0
2017-05-25T02:13:49.340Z,0
2017-05-25T02:14:29.918Z,0
2017-05-25T02:15:10.542Z,0
2017-05-25T02:15:51.133Z,0
2017-05-25T02:16:31.726Z,0
2017-05-25T02:17:12.309Z,4
2017-05-25T02:17:52.891Z,4
2017-05-25T02:18:33.463Z,4
2017-05-25T02:19:14.043Z,0
2017-05-25T02:19:54.708Z,0
2017-05-25T02:20:35.292Z,0
2017-05-25T02:21:15.881Z,4
2017-05-25T02:21:56.464Z,4
2017-05-25T02:22:37.048Z,4
2017-05-25T02:23:17.626Z,0
2017-05-25T02:23:58.205Z,4
2017-05-25T02:24:38.786Z,4
2017-05-25T02:25:19.358Z,4
2017-05-25T02:25:59.953Z,4
2017-05-25T02:26:40.523Z,4
2017-05-25T02:27:21.099Z,4
2017-05-25T02:28:01.685Z,4
2017-05-25T02:28:42.261Z,4
2017-05-25T02:29:22.894Z,8
2017-05-25T02:30:03.431Z,8
2017-05-25T02:30:44.019Z,8
2017-05-25T02:31:24.590Z,12
2017-05-25T02:32:05.180Z,12
2017-05-25T02:32:45.769Z,12
2017-05-25T02:33:26.368Z,12
2017-05-25T02:34:06.960Z,12
2017-05-25T02:34:47.542Z,12
2017-05-25T02:35:28.111Z,12
2017-05-25T02:36:08.685Z,16
2017-05-25T02:36:49.308Z,16
2017-05-25T02:37:29.883Z,16
2017-05-25T02:38:10.463Z,16
2017-05-25T02:38:51.082Z,20
2017-05-25T02:39:31.661Z,20
2017-05-25T02:40:12.240Z,24
2017-05-25T02:40:52.813Z,24
2017-05-25T02:41:33.654Z,28
2017-05-25T02:42:14.244Z,28
2017-05-25T02:42:54.847Z,32
2017-05-25T02:43:35.431Z,32
2017-05-25T02:44:16.066Z,36
2017-05-25T02:44:56.721Z,36
2017-05-25T02:45:37.302Z,40
2017-05-25T02:46:17.899Z,44
2017-05-25T02:46:58.921Z,48
2017-05-25T02:47:39.506Z,52
2017-05-25T02:48:20.102Z,56
2017-05-25T02:49:00.679Z,56
2017-05-25T02:49:41.260Z,60
2017-05-25T02:50:21.832Z,64
2017-05-25T02:51:02.414Z,68
2017-05-25T02:51:42.999Z,72
2017-05-25T02:52:23.584Z,72
2017-05-25T02:53:04.163Z,76
2017-05-25T02:53:44.731Z,84
2017-05-25T02:54:25.315Z,88
2017-05-25T02:55:05.891Z,88
2017-05-25T02:55:46.485Z,96
2017-05-25T02:56:27.114Z,100
2017-05-25T02:57:07.696Z,104
2017-05-25T02:57:48.277Z,108
2017-05-25T02:58:28.857Z,116
2017-05-25T02:59:09.425Z,116
2017-05-25T02:59:50.000Z,128
2017-05-25T03:00:30.597Z,132
2017-05-25T03:01:11.183Z,140
2017-05-25T03:01:51.776Z,140
2017-05-25T03:02:32.364Z,148
2017-05-25T03:03:12.944Z,156
2017-05-25T03:03:53.527Z,164
2017-05-25T03:04:34.107Z,172
2017-05-25T03:05:14.702Z,180
2017-05-25T03:05:55.278Z,188
2017-05-25T03:06:35.857Z,196
2017-05-25T03:07:16.438Z,204
2017-05-25T03:07:57.044Z,216
2017-05-25T03:08:37.624Z,224
2017-05-25T03:09:18.281Z,232
2017-05-25T03:09:58.863Z,244
2017-05-25T03:10:39.443Z,252
2017-05-25T03:11:20.018Z,264
2017-05-25T03:12:00.592Z,276
2017-05-25T03:12:41.193Z,288
2017-05-25T03:13:21.791Z,300
2017-05-25T03:14:02.368Z,312
2017-05-25T03:14:42.954Z,324
2017-05-25T03:15:23.540Z,332
2017-05-25T03:16:04.133Z,344
2017-05-25T03:16:44.724Z,356
2017-05-25T03:17:25.307Z,368
2017-05-25T03:18:05.897Z,388
2017-05-25T03:18:46.492Z,408
2017-05-25T03:19:27.085Z,436
2017-05-25T03:20:07.676Z,468
2017-05-25T03:20:48.267Z,504
2017-05-25T03:21:28.845Z,532
2017-05-25T03:22:09.598Z,560
2017-05-25T03:22:50.214Z,580
2017-05-25T03:23:30.851Z,600
2017-05-25T03:24:11.429Z,612
2017-05-25T03:24:52.018Z,628
2017-05-25T03:25:32.585Z,644
2017-05-25T03:26:13.217Z,660
2017-05-25T03:26:53.791Z,676
2017-05-25T03:27:34.383Z,692
2017-05-25T03:28:15.034Z,708
2017-05-25T03:28:55.624Z,712
2017-05-25T03:29:36.247Z,724
2017-05-25T03:30:16.828Z,732
2017-05-25T03:30:57.401Z,744
2017-05-25T03:31:38.007Z,756
2017-05-25T03:32:18.572Z,768
2017-05-25T03:32:59.153Z,780
2017-05-25T03:33:39.748Z,788
2017-05-25T03:34:20.657Z,800
2017-05-25T03:35:01.256Z,812
2017-05-25T03:35:41.855Z,820
2017-05-25T03:36:22.443Z,840
2017-05-25T03:37:03.133Z,852
2017-05-25T03:37:43.707Z,868
2017-05-25T03:38:24.277Z,876
2017-05-25T03:39:04.870Z,880
2017-05-25T03:39:45.463Z,888
2017-05-25T03:40:26.045Z,892
2017-05-25T03:41:06.668Z,896
2017-05-25T03:41:47.246Z,908
2017-05-25T03:42:27.882Z,924
2017-05-25T03:43:08.486Z,936
2017-05-25T03:43:49.061Z,956
2017-05-25T03:44:29.937Z,976
2017-05-25T03:45:10.523Z,988
2017-05-25T03:45:51.096Z,1004
2017-05-25T03:46:31.698Z,1020
2017-05-25T03:47:12.284Z,1028
2017-05-25T03:47:52.855Z,1048
2017-05-25T03:48:33.432Z,1068
2017-05-25T03:49:14.080Z,1084
2017-05-25T03:49:54.675Z,1100
2017-05-25T03:50:35.255Z,1112
2017-05-25T03:51:15.841Z,1104
2017-05-25T03:51:56.423Z,1084
2017-05-25T03:52:37.006Z,1032
2017-05-25T03:53:17.631Z,976
2017-05-25T03:53:58.217Z,940
2017-05-25T03:54:38.820Z,928
2017-05-25T03:55:19.398Z,924
2017-05-25T03:55:59.988Z,928
2017-05-25T03:56:40.557Z,940
2017-05-25T03:57:21.140Z,936
2017-05-25T03:58:01.738Z,928
2017-05-25T03:58:42.377Z,928
2017-05-25T03:59:22.965Z,948
2017-05-25T04:00:03.556Z,992
2017-05-25T04:00:44.139Z,1048
2017-05-25T04:01:24.723Z,1136
2017-05-25T04:02:05.282Z,1268
2017-05-25T04:02:45.915Z,1420
2017-05-25T04:03:26.487Z,1544
2017-05-25T04:04:07.066Z,1592
2017-05-25T04:04:47.654Z,1632
2017-05-25T04:05:28.271Z,1628
2017-05-25T04:06:08.852Z,1632
2017-05-25T04:06:49.433Z,1592
2017-05-25T04:07:30.012Z,1616
2017-05-25T04:08:10.599Z,1632
2017-05-25T04:08:51.180Z,1572
2017-05-25T04:09:31.775Z,1552
2017-05-25T04:10:12.343Z,1596
2017-05-25T04:10:52.917Z,1628
2017-05-25T04:11:33.502Z,1612
2017-05-25T04:12:14.083Z,1568
2017-05-25T04:12:54.672Z,1628
2017-05-25T04:13:35.262Z,1744
2017-05-25T04:14:15.855Z,1888
2017-05-25T04:14:56.430Z,1968
2017-05-25T04:15:37.023Z,2020
2017-05-25T04:16:17.612Z,2056
2017-05-25T04:16:58.182Z,2096
2017-05-25T04:17:38.772Z,2132
2017-05-25T04:18:19.769Z,2168
2017-05-25T04:19:00.478Z,2208
2017-05-25T04:19:41.055Z,2232
2017-05-25T04:20:21.649Z,2244
2017-05-25T04:21:02.231Z,2268
2017-05-25T04:21:42.807Z,2268
2017-05-25T04:22:23.394Z,2280
2017-05-25T04:23:03.996Z,2268
2017-05-25T04:23:44.582Z,2256
2017-05-25T04:24:25.165Z,2264
2017-05-25T04:25:05.740Z,2264
2017-05-25T04:25:46.317Z,2276
2017-05-25T04:26:26.906Z,2300
2017-05-25T04:27:07.485Z,2316
2017-05-25T04:27:48.070Z,2312
2017-05-25T04:28:28.659Z,2316
2017-05-25T04:29:09.232Z,2312
2017-05-25T04:29:49.831Z,2320
2017-05-25T04:30:30.449Z,2336
2017-05-25T04:31:11.017Z,2340
2017-05-25T04:31:51.593Z,2384
2017-05-25T04:32:32.321Z,2388
2017-05-25T04:33:12.942Z,2392
2017-05-25T04:33:53.516Z,2412
2017-05-25T04:34:34.096Z,2436
2017-05-25T04:35:14.679Z,2452
2017-05-25T04:35:55.271Z,2468
2017-05-25T04:36:35.869Z,2492
2017-05-25T04:37:16.460Z,2536
2017-05-25T04:37:57.043Z,2588
2017-05-25T04:38:37.631Z,2584
2017-05-25T04:39:18.240Z,2616
2017-05-25T04:39:58.820Z,2644
2017-05-25T04:40:39.410Z,2688
2017-05-25T04:41:19.985Z,2732
2017-05-25T04:42:00.568Z,2760
2017-05-25T04:42:41.147Z,2788
2017-05-25T04:43:21.773Z,2816
2017-05-25T04:44:02.345Z,2820
2017-05-25T04:44:42.922Z,2876
2017-05-25T04:45:23.502Z,2928
2017-05-25T04:46:04.082Z,2996
2017-05-25T04:46:44.668Z,2964
2017-05-25T04:47:25.238Z,2980
2017-05-25T04:48:05.827Z,2976
2017-05-25T04:48:46.424Z,2864
2017-05-25T04:49:27.003Z,2812
2017-05-25T04:50:07.585Z,2840
2017-05-25T04:50:48.166Z,2956
2017-05-25T04:51:28.739Z,3056
2017-05-25T04:52:09.326Z,3092
2017-05-25T04:52:49.897Z,3096
2017-05-25T04:53:30.493Z,3116
2017-05-25T04:54:11.063Z,3064
2017-05-25T04:54:51.642Z,3128
2017-05-25T04:55:32.229Z,3176
2017-05-25T04:56:12.801Z,3184
2017-05-25T04:56:53.384Z,3204
2017-05-25T04:57:33.967Z,3144
2017-05-25T04:58:14.550Z,3188
2017-05-25T04:58:55.142Z,3244
2017-05-25T04:59:35.730Z,3316
2017-05-25T05:00:16.305Z,3260
2017-05-25T05:00:56.891Z,3320
2017-05-25T05:01:37.479Z,3380
2017-05-25T05:02:18.078Z,3424
2017-05-25T05:02:58.653Z,3436
2017-05-25T05:03:39.259Z,3492
2017-05-25T05:04:19.846Z,3520
2017-05-25T05:05:00.418Z,3552
2017-05-25T05:05:41.004Z,3580
2017-05-25T05:06:21.623Z,3620
2017-05-25T05:07:02.242Z,3600
2017-05-25T05:07:42.819Z,3572
2017-05-25T05:08:23.391Z,3600
2017-05-25T05:09:03.971Z,3712
2017-05-25T05:09:44.615Z,3688
2017-05-25T05:10:25.208Z,3584
2017-05-25T05:11:05.786Z,3624
2017-05-25T05:11:46.370Z,3680
2017-05-25T05:12:26.983Z,3752
2017-05-25T05:13:07.567Z,3828
2017-05-25T05:13:48.154Z,3856
2017-05-25T05:14:28.733Z,3824
2017-05-25T05:15:09.336Z,3836
2017-05-25T05:15:49.923Z,3892
2017-05-25T05:16:30.495Z,3936
2017-05-25T05:17:11.084Z,3944
2017-05-25T05:17:51.688Z,3976
2017-05-25T05:18:32.269Z,4004
2017-05-25T05:19:12.845Z,4052
2017-05-25T05:19:53.441Z,4108
2017-05-25T05:20:34.021Z,4180
2017-05-25T05:21:14.595Z,4276
2017-05-25T05:21:55.191Z,4400
2017-05-25T05:22:35.799Z,4500
2017-05-25T05:23:16.368Z,4596
2017-05-25T05:23:56.953Z,4640
2017-05-25T05:24:37.538Z,4688
2017-05-25T05:25:18.117Z,4736
2017-05-25T05:25:58.694Z,4808
2017-05-25T05:26:39.276Z,12544
2017-05-25T05:27:19.861Z,40032
2017-05-25T05:28:00.456Z,69024
2017-05-25T05:28:41.041Z,87744
2017-05-25T05:29:21.623Z,86016
2017-05-25T05:30:02.208Z,86080
2017-05-25T05:30:42.777Z,85664
2017-05-25T05:31:23.402Z,86240
2017-05-25T05:32:03.946Z,87360
2017-05-25T05:32:44.538Z,87456
2017-05-25T05:33:25.118Z,86080
2017-05-25T05:34:05.762Z,85024
2017-05-25T05:34:46.322Z,84896
2017-05-25T05:35:26.972Z,87616
2017-05-25T05:36:07.548Z,88416
2017-05-25T05:36:48.143Z,87936
2017-05-25T05:37:28.727Z,85600
2017-05-25T05:38:09.315Z,86816
2017-05-25T05:38:49.912Z,86720
2017-05-25T05:39:30.509Z,85760
2017-05-25T05:40:11.089Z,87456
2017-05-25T05:40:51.671Z,87104
2017-05-25T05:41:32.277Z,87168
2017-05-25T05:42:12.880Z,88256
2017-05-25T05:42:53.466Z,85888
2017-05-25T05:43:34.063Z,85664
2017-05-25T05:44:14.660Z,86368
2017-05-25T05:44:55.236Z,85760
2017-05-25T05:45:35.825Z,88192
2017-05-25T05:46:16.427Z,89056
2017-05-25T05:46:57.019Z,90112
2017-05-25T05:47:37.604Z,90336
2017-05-25T05:48:18.187Z,92256
2017-05-25T05:48:58.807Z,91520
2017-05-25T05:49:39.415Z,89792
2017-05-25T05:50:20.001Z,88544
2017-05-25T05:51:00.709Z,87680
2017-05-25T05:51:41.289Z,89344
2017-05-25T05:52:21.950Z,92768
2017-05-25T05:53:02.547Z,93216
2017-05-25T05:53:43.154Z,93280
2017-05-25T05:54:23.741Z,93152
2017-05-25T05:55:04.349Z,94752
2017-05-25T05:55:44.956Z,95936
2017-05-25T05:56:25.571Z,97536
2017-05-25T05:57:06.162Z,95808
2017-05-25T05:57:46.755Z,95456
2017-05-25T05:58:27.408Z,96448
2017-05-25T05:59:08.002Z,97088
2017-05-25T05:59:48.602Z,97056
2017-05-25T06:00:29.182Z,95872
2017-05-25T06:01:09.770Z,97600
2017-05-25T06:01:50.363Z,100544
2017-05-25T06:02:30.957Z,102240
2017-05-25T06:03:11.545Z,99744
2017-05-25T06:03:52.133Z,102464
2017-05-25T06:04:32.726Z,100352
2017-05-25T06:05:13.312Z,95808
2017-05-25T06:05:53.960Z,90848
2017-05-25T06:06:34.490Z,92192
2017-05-25T06:07:15.079Z,94400
2017-05-25T06:07:55.712Z,97376
2017-05-25T06:08:36.302Z,98016
2017-05-25T06:09:16.901Z,94048
2017-05-25T06:09:57.643Z,92544
2017-05-25T06:10:38.233Z,89152
2017-05-25T06:11:18.827Z,86624
2017-05-25T06:11:59.421Z,87040
2017-05-25T06:12:40.000Z,84096
2017-05-25T06:13:20.660Z,82624
2017-05-25T06:14:01.255Z,77664
2017-05-25T06:14:41.859Z,76608
2017-05-25T06:15:22.451Z,76576
2017-05-25T06:16:03.038Z,76352
2017-05-25T06:16:43.618Z,87232
2017-05-25T06:17:24.205Z,91264
2017-05-25T06:18:04.826Z,94080
2017-05-25T06:18:45.449Z,94944
2017-05-25T06:19:26.019Z,92608
2017-05-25T06:20:06.616Z,93600
2017-05-25T06:20:47.213Z,94240
2017-05-25T06:21:27.802Z,93248
2017-05-25T06:22:08.387Z,95584
2017-05-25T06:22:49.011Z,92224
2017-05-25T06:23:29.644Z,92928
2017-05-25T06:24:10.242Z,85760
2017-05-25T06:24:50.839Z,90880
2017-05-25T06:25:31.424Z,53504
2017-05-25T06:26:12.030Z,36960
2017-05-25T06:26:52.622Z,84864
2017-05-25T06:27:33.208Z,52896
2017-05-25T06:28:13.816Z,38336
2017-05-25T06:28:54.412Z,87520
2017-05-25T06:29:35.039Z,83904
2017-05-25T06:30:15.659Z,77440
2017-05-25T06:30:56.271Z,87744
2017-05-25T06:31:36.857Z,86784
2017-05-25T06:32:17.456Z,90304
2017-05-25T06:32:58.052Z,79264
2017-05-25T06:33:38.635Z,96096
2017-05-25T06:34:19.246Z,91616
2017-05-25T06:35:05.074Z,72096
2017-05-25T06:35:47.397Z,78464
2017-05-25T06:36:27.989Z,90240
2017-05-25T06:37:09.111Z,20800
2017-05-25T06:37:51.579Z,9788
2017-05-25T06:38:32.568Z,12380
2017-05-25T06:39:15.699Z,70016
2017-05-25T06:39:57.724Z,36576
2017-05-25T06:40:39.110Z,33824
2017-05-25T06:41:20.096Z,65312
2017-05-25T06:42:01.975Z,90016
2017-05-25T06:42:42.837Z,90016
2017-05-25T06:43:23.426Z,92448
2017-05-25T06:44:04.090Z,92192
2017-05-25T06:44:44.835Z,95008
2017-05-25T06:45:25.438Z,93888
2017-05-25T06:46:06.057Z,95264
2017-05-25T06:46:46.663Z,93120
2017-05-25T06:47:28.681Z,88384
2017-05-25T06:48:10.477Z,85120
2017-05-25T06:48:51.297Z,87424
2017-05-25T06:49:31.899Z,91808
2017-05-25T06:50:12.506Z,96192
2017-05-25T06:50:53.117Z,95616
2017-05-25T06:51:33.924Z,94464
2017-05-25T06:52:14.519Z,93248
2017-05-25T06:52:55.127Z,91552
2017-05-25T06:53:35.758Z,89632
2017-05-25T06:54:16.345Z,88416
2017-05-25T06:54:56.952Z,87552
2017-05-25T06:55:37.549Z,88704
2017-05-25T06:56:18.148Z,91136
2017-05-25T06:56:58.744Z,95072
2017-05-25T06:57:39.331Z,91424
2017-05-25T06:58:19.942Z,89504
2017-05-25T06:59:00.544Z,87456
2017-05-25T06:59:41.151Z,86080
2017-05-25T07:00:21.778Z,88256
2017-05-25T07:01:02.518Z,88416
2017-05-25T07:01:43.089Z,87136
2017-05-25T07:02:23.740Z,87200
2017-05-25T07:03:04.332Z,87840
2017-05-25T07:03:44.930Z,86816
2017-05-25T07:04:25.529Z,86944
2017-05-25T07:05:06.149Z,88128
2017-05-25T07:05:46.746Z,86624
2017-05-25T07:06:27.345Z,88544
2017-05-25T07:07:07.961Z,88320
2017-05-25T07:07:48.550Z,88224
2017-05-25T07:08:29.152Z,88224
2017-05-25T07:09:09.774Z,85440
2017-05-25T07:09:50.373Z,88512
2017-05-25T07:10:30.960Z,87520
2017-05-25T07:11:11.656Z,91200
2017-05-25T07:11:52.245Z,93248
2017-05-25T07:12:32.842Z,90880
2017-05-25T07:13:13.441Z,88512
2017-05-25T07:13:54.083Z,90368
2017-05-25T07:14:34.990Z,87872
2017-05-25T07:15:15.710Z,83456
2017-05-25T07:15:56.319Z,85120
2017-05-25T07:16:36.928Z,88608
2017-05-25T07:17:17.513Z,94528
2017-05-25T07:17:58.157Z,94048
2017-05-25T07:18:38.746Z,93920
2017-05-25T07:19:19.476Z,91072
2017-05-25T07:20:00.151Z,90560
2017-05-25T07:20:40.773Z,92512
2017-05-25T07:21:21.434Z,93056
2017-05-25T07:22:02.029Z,93056
2017-05-25T07:22:42.623Z,94560
2017-05-25T07:23:23.216Z,94720
2017-05-25T07:24:03.820Z,92512
2017-05-25T07:24:44.547Z,92640
2017-05-25T07:25:25.212Z,93184
2017-05-25T07:26:09.121Z,94240
2017-05-25T07:27:03.252Z,95104
2017-05-25T07:28:04.453Z,90912
2017-05-25T07:28:46.649Z,91200
2017-05-25T07:29:28.556Z,89696
2017-05-25T07:30:23.033Z,93600
2017-05-25T07:31:08.705Z,91904
2017-05-25T07:31:59.953Z,93504
2017-05-25T07:32:40.619Z,92352
2017-05-25T07:33:21.215Z,92192
2017-05-25T07:34:01.838Z,92128
2017-05-25T07:34:42.428Z,92704
2017-05-25T07:35:23.031Z,91968
2017-05-25T07:36:03.630Z,89024
2017-05-25T07:36:44.224Z,90624
2017-05-25T07:37:24.831Z,93504
2017-05-25T07:38:05.423Z,92896
2017-05-25T07:38:46.039Z,95136
2017-05-25T07:39:26.655Z,94272
2017-05-25T07:40:07.249Z,95200
2017-05-25T07:40:47.851Z,90048
2017-05-25T07:41:28.446Z,88768
2017-05-25T07:42:09.058Z,93376
2017-05-25T07:42:49.680Z,96736
2017-05-25T07:43:30.256Z,96800
2017-05-25T07:44:10.886Z,97216
2017-05-25T07:44:51.467Z,96096
2017-05-25T07:45:32.069Z,93536
2017-05-25T07:46:12.668Z,92512
2017-05-25T07:46:53.271Z,94656
2017-05-25T07:47:33.872Z,94304
2017-05-25T07:48:14.469Z,96768
2017-05-25T07:48:55.068Z,97376
2017-05-25T07:49:35.672Z,96864
2017-05-25T07:50:16.258Z,93824
2017-05-25T07:50:56.860Z,99712
2017-05-25T07:51:37.451Z,98144
2017-05-25T07:52:18.105Z,96640
2017-05-25T07:52:58.694Z,96640
2017-05-25T07:53:39.320Z,102176
2017-05-25T07:54:19.987Z,71104
2017-05-25T07:55:00.572Z,85664
2017-05-25T07:55:41.163Z,103968
2017-05-25T07:56:21.759Z,51040
2017-05-25T07:57:02.348Z,92832
2017-05-25T07:57:42.956Z,83776
2017-05-25T07:58:23.543Z,33408
2017-05-25T07:59:04.161Z,27520
2017-05-25T07:59:44.751Z,19904
2017-05-25T08:00:25.338Z,18784
2017-05-25T08:01:05.959Z,20160
2017-05-25T08:01:46.551Z,17600
2017-05-25T08:02:27.161Z,7792
2017-05-25T08:03:07.774Z,8248
2017-05-25T08:03:48.392Z,9592
2017-05-25T08:04:28.951Z,14648
2017-05-25T08:05:09.547Z,19136
2017-05-25T08:05:50.129Z,18848
2017-05-25T08:06:30.737Z,12012
2017-05-25T08:07:11.327Z,20256
2017-05-25T08:07:51.936Z,17600
2017-05-25T08:08:32.533Z,16960
2017-05-25T08:09:13.145Z,15936
2017-05-25T08:09:53.745Z,14612
2017-05-25T08:10:34.341Z,14120
2017-05-25T08:11:14.928Z,14120
2017-05-25T08:11:55.543Z,14372
2017-05-25T08:12:36.138Z,9640
2017-05-25T08:13:16.727Z,8864
2017-05-25T08:13:57.308Z,12536
2017-05-25T08:14:37.904Z,13248
2017-05-25T08:15:18.511Z,10808
2017-05-25T08:15:59.134Z,8660
2017-05-25T08:16:39.764Z,7216
2017-05-25T08:17:20.388Z,6936
2017-05-25T08:18:00.983Z,6512
2017-05-25T08:18:41.634Z,6040
2017-05-25T08:19:22.242Z,11984
2017-05-25T08:20:02.823Z,12184
2017-05-25T08:20:43.452Z,12072
2017-05-25T08:21:24.077Z,11944
2017-05-25T08:22:04.673Z,11444
2017-05-25T08:22:45.284Z,11284
2017-05-25T08:23:25.887Z,8796
2017-05-25T08:24:06.485Z,11132
2017-05-25T08:24:47.089Z,8328
2017-05-25T08:25:27.687Z,7316
2017-05-25T08:26:08.318Z,7044
2017-05-25T08:26:48.910Z,6800
2017-05-25T08:27:29.505Z,7292
2017-05-25T08:28:10.099Z,8988
2017-05-25T08:28:50.713Z,10244
2017-05-25T08:29:31.300Z,8220
2017-05-25T08:30:11.901Z,8736
2017-05-25T08:30:52.512Z,8652
2017-05-25T08:31:33.245Z,9388
2017-05-25T08:32:13.834Z,8824
2017-05-25T08:32:54.436Z,7488
2017-05-25T08:33:35.027Z,6636
2017-05-25T08:34:15.612Z,7060
2017-05-25T08:34:56.202Z,8156
2017-05-25T08:35:36.853Z,8004
2017-05-25T08:36:17.462Z,7808
2017-05-25T08:36:58.078Z,11636
2017-05-25T08:37:38.674Z,12160
2017-05-25T08:38:19.312Z,8432
2017-05-25T08:38:59.892Z,7940
2017-05-25T08:39:40.487Z,8540
2017-05-25T08:40:21.088Z,12008
2017-05-25T08:41:01.704Z,11348
2017-05-25T08:41:42.267Z,8452
2017-05-25T08:42:22.851Z,7608
2017-05-25T08:43:03.496Z,10164
2017-05-25T08:43:44.096Z,9932
2017-05-25T08:44:24.721Z,9304
2017-05-25T08:45:05.302Z,10496
2017-05-25T08:45:45.885Z,11468
2017-05-25T08:46:26.502Z,11756
2017-05-25T08:47:07.105Z,11720
2017-05-25T08:47:47.709Z,11612
2017-05-25T08:48:28.317Z,11828
2017-05-25T08:49:08.967Z,10860
2017-05-25T08:49:49.583Z,10932
2017-05-25T08:50:30.190Z,10364
2017-05-25T08:51:10.773Z,9592
2017-05-25T08:51:51.360Z,9648
2017-05-25T08:52:32.028Z,7704
2017-05-25T08:53:12.618Z,7760
2017-05-25T08:53:53.224Z,7508
2017-05-25T08:54:33.820Z,7252
2017-05-25T08:55:14.524Z,8128
2017-05-25T08:55:55.105Z,7916
2017-05-25T08:56:35.700Z,7136
2017-05-25T08:57:16.279Z,6080
2017-05-25T08:57:56.862Z,5176
2017-05-25T08:58:37.473Z,7376
2017-05-25T08:59:18.085Z,5184
2017-05-25T08:59:58.688Z,5228
2017-05-25T09:00:39.287Z,6064
2017-05-25T09:01:19.898Z,7436
2017-05-25T09:02:00.487Z,7556
2017-05-25T09:02:41.106Z,7512
2017-05-25T09:03:21.700Z,9044
2017-05-25T09:04:02.278Z,8860
2017-05-25T09:04:42.872Z,9624
2017-05-25T09:05:23.485Z,9912
2017-05-25T09:06:04.084Z,9368
2017-05-25T09:06:44.663Z,8736
2017-05-25T09:07:25.242Z,8256
2017-05-25T09:08:05.839Z,7276
2017-05-25T09:08:46.425Z,6628
2017-05-25T09:09:27.018Z,6212
2017-05-25T09:10:07.609Z,6248
2017-05-25T09:10:48.210Z,6468
2017-05-25T09:11:28.793Z,6676
2017-05-25T09:12:09.378Z,6816
2017-05-25T09:12:49.978Z,6604
2017-05-25T09:13:30.617Z,5696
2017-05-25T09:14:11.296Z,4976
2017-05-25T09:14:51.897Z,4564